Time;durP1;ratioP1;P1;durP2;ratioP2;P2;SDS_P1;SDS_P2;PMS_P1;PMS_P2;Temp;Humidity;BMP_temperature;BMP_pressure;BME280_temperature;BME280_humidity;BME280_pressure;Samples;Min_cycle;Max_cycle;Signal;HPM_P1;HPM_P2
2022/06/14 00:03:16;;;;;;;7.60;2.60;;;11.70;96.20;;;;;;5053540;28;20939;-63
2022/06/14 00:05:44;;;;;;;4.30;2.73;;;11.70;96.40;;;;;;5052929;28;20436;-63
2022/06/14 00:08:12;;;;;;;2.63;1.97;;;11.80;96.50;;;;;;5053243;28;20445;-64
2022/06/14 00:10:40;;;;;;;6.07;2.97;;;11.80;96.40;;;;;;5052734;28;20969;-64
2022/06/14 00:13:07;;;;;;;4.73;2.90;;;11.80;96.40;;;;;;5053293;28;20482;-64
2022/06/14 00:15:35;;;;;;;6.53;2.60;;;11.80;96.40;;;;;;5052834;28;20483;-64
2022/06/14 00:18:03;;;;;;;4.47;3.50;;;11.80;96.40;;;;;;5052859;28;20493;-64
2022/06/14 00:20:32;;;;;;;9.00;2.63;;;11.80;96.40;;;;;;5052684;28;20507;-63
2022/06/14 00:22:59;;;;;;;5.33;2.40;;;11.80;96.50;;;;;;5052596;28;20543;-63
2022/06/14 00:25:30;;;;;;;3.00;2.70;;;11.70;96.70;;;;;;5054745;28;20448;-63
2022/06/14 00:27:57;;;;;;;5.10;2.93;;;11.70;96.90;;;;;;5071306;28;20436;-64
2022/06/14 00:30:25;;;;;;;5.50;2.83;;;11.70;97.20;;;;;;5072890;28;20467;-64
2022/06/14 00:32:53;;;;;;;8.73;2.70;;;11.70;97.30;;;;;;5069712;28;20484;-64
2022/06/14 00:35:20;;;;;;;4.17;2.70;;;11.60;97.30;;;;;;5064543;28;20522;-64
2022/06/14 00:37:49;;;;;;;5.30;2.50;;;11.60;97.50;;;;;;5066451;28;20498;-64
2022/06/14 00:40:20;;;;;;;5.80;2.70;;;11.60;97.60;;;;;;5066628;28;20463;-65
2022/06/14 00:42:48;;;;;;;6.53;3.30;;;11.60;97.70;;;;;;5067988;28;20439;-64
2022/06/14 00:45:48;;;;;;;6.87;3.63;;;11.60;97.80;;;;;;5062171;28;20467;-64
2022/06/14 00:48:21;;;;;;;9.70;3.37;;;11.50;97.80;;;;;;5047702;28;20446;-64
2022/06/14 00:51:00;;;;;;;11.57;3.90;;;11.50;98.00;;;;;;5062262;28;20459;-62
2022/06/14 00:53:39;;;;;;;8.10;3.10;;;11.50;98.20;;;;;;5057575;28;20452;-64
2022/06/14 00:56:12;;;;;;;8.63;3.33;;;11.40;98.40;;;;;;5056662;28;20499;-63
2022/06/14 00:58:43;;;;;;;9.30;3.43;;;11.40;98.60;;;;;;5056725;28;20424;-63
2022/06/14 01:01:14;;;;;;;7.70;2.97;;;11.30;98.80;;;;;;5056735;28;20429;-64
2022/06/14 01:03:44;;;;;;;4.13;2.93;;;11.30;98.90;;;;;;5056188;28;20952;-64
2022/06/14 01:06:16;;;;;;;5.80;2.80;;;11.30;99.00;;;;;;5056449;28;20535;-64
2022/06/14 01:08:48;;;;;;;5.63;2.70;;;11.20;99.10;;;;;;5056672;28;20503;-63
2022/06/14 01:11:25;;;;;;;8.07;2.70;;;11.20;99.30;;;;;;5056597;28;20485;-63
2022/06/14 01:13:52;;;;;;;4.53;2.70;;;11.10;99.50;;;;;;5056423;28;20424;-64
2022/06/14 01:16:20;;;;;;;6.13;3.10;;;11.10;99.70;;;;;;5056555;28;20440;-63
2022/06/14 01:18:47;;;;;;;7.37;3.03;;;11.00;99.80;;;;;;5056191;28;20440;-63
2022/06/14 01:21:15;;;;;;;6.30;2.97;;;11.00;99.90;;;;;;5056302;28;20449;-63
2022/06/14 01:23:44;;;;;;;4.77;2.77;;;10.90;99.90;;;;;;5056015;28;20474;-63
2022/06/14 01:26:15;;;;;;;5.83;2.80;;;10.90;99.90;;;;;;5056076;28;20463;-63
2022/06/14 01:28:45;;;;;;;9.90;2.90;;;10.90;99.90;;;;;;5055744;28;20460;-63
2022/06/14 01:31:14;;;;;;;4.57;2.50;;;10.80;99.90;;;;;;5055848;28;20468;-63
2022/06/14 01:33:46;;;;;;;9.10;3.23;;;10.80;99.90;;;;;;5055963;28;20271;-63
2022/06/14 01:36:18;;;;;;;8.45;2.88;;;10.80;99.90;;;;;;5055364;28;20464;-63
2022/06/14 01:38:49;;;;;;;4.90;2.60;;;10.70;99.90;;;;;;5056039;28;20617;-64
2022/06/14 01:41:28;;;;;;;4.20;2.50;;;10.70;99.90;;;;;;5056181;28;20206;-64
2022/06/14 01:44:22;;;;;;;4.33;3.23;;;10.70;99.90;;;;;;5055977;28;20450;-64
2022/06/14 01:47:17;;;;;;;4.50;2.20;;;10.70;99.90;;;;;;5056012;28;20437;-64
2022/06/14 01:52:52;;;;;;;6.20;2.60;;;10.60;99.90;;;;;;5055719;28;20181;-63
2022/06/14 01:55:28;;;;;;;3.60;2.80;;;10.60;99.90;;;;;;5055598;28;20237;-63
2022/06/14 01:58:00;;;;;;;8.18;3.08;;;10.50;99.90;;;;;;5055722;28;20455;-63
2022/06/14 02:00:31;;;;;;;6.05;3.20;;;10.50;99.90;;;;;;5055102;28;20276;-64
2022/06/14 02:06:09;;;;;;;7.60;3.07;;;10.60;99.90;;;;;;5013508;28;20771;-62
2022/06/14 02:08:43;;;;;;;4.47;2.67;;;10.60;99.90;;;;;;5013275;28;20422;-64
2022/06/14 02:11:16;;;;;;;4.15;3.25;;;10.60;99.90;;;;;;5035809;28;20555;-64
2022/06/14 02:13:48;;;;;;;4.53;3.07;;;10.60;99.90;;;;;;5055233;28;20261;-63
2022/06/14 02:16:20;;;;;;;7.23;3.60;;;10.60;99.90;;;;;;5054826;28;20546;-64
2022/06/14 02:18:51;;;;;;;6.25;3.58;;;10.70;99.90;;;;;;5054835;28;20440;-63
2022/06/14 02:21:24;;;;;;;5.43;3.33;;;10.60;99.90;;;;;;5054856;28;20182;-63
2022/06/14 02:23:57;;;;;;;9.70;3.40;;;10.60;99.90;;;;;;5055310;28;20598;-64
2022/06/14 02:26:30;;;;;;;6.25;3.08;;;10.60;99.90;;;;;;5055055;28;20433;-64
2022/06/14 02:29:03;;;;;;;4.97;3.20;;;10.60;99.90;;;;;;5054740;28;20252;-63
2022/06/14 02:31:36;;;;;;;4.30;3.37;;;10.50;99.90;;;;;;5054716;28;20905;-63
2022/06/14 02:34:08;;;;;;;6.55;3.40;;;10.50;99.90;;;;;;5054550;28;20432;-64
2022/06/14 02:36:40;;;;;;;7.50;3.50;;;10.50;99.90;;;;;;5054406;28;20747;-63
2022/06/14 02:39:12;;;;;;;5.53;3.30;;;10.40;99.90;;;;;;5054742;28;20490;-63
2022/06/14 02:41:45;;;;;;;7.65;3.90;;;10.40;99.90;;;;;;5054868;28;20218;-64
2022/06/14 02:44:17;;;;;;;4.10;3.10;;;10.40;99.90;;;;;;5054822;28;20194;-64
2022/06/14 02:46:48;;;;;;;7.53;3.67;;;10.40;99.90;;;;;;5054467;28;20440;-64
2022/06/14 02:49:22;;;;;;;7.43;3.78;;;10.40;99.90;;;;;;5053485;28;20222;-64
2022/06/14 02:51:52;;;;;;;5.65;3.47;;;10.30;99.90;;;;;;5054499;28;20273;-63
2022/06/14 02:54:24;;;;;;;5.57;2.78;;;10.30;99.90;;;;;;5054507;28;20612;-63
2022/06/14 02:57:00;;;;;;;5.40;2.85;;;10.30;99.90;;;;;;5054584;28;20189;-62
2022/06/14 02:59:33;;;;;;;4.45;3.00;;;10.30;99.90;;;;;;5054013;28;20225;-63
2022/06/14 03:02:04;;;;;;;6.28;2.80;;;10.30;99.90;;;;;;5054464;28;20614;-63
2022/06/14 03:04:36;;;;;;;5.30;3.78;;;10.30;99.90;;;;;;5054308;28;20221;-64
2022/06/14 03:07:07;;;;;;;7.65;3.40;;;10.20;99.90;;;;;;5054097;28;20218;-64
2022/06/14 03:09:36;;;;;;;4.88;2.90;;;10.30;99.90;;;;;;5054420;28;20226;-63
2022/06/14 03:12:17;;;;;;;7.55;3.38;;;10.30;99.90;;;;;;5053901;28;20212;-62
2022/06/14 03:14:55;;;;;;;3.83;3.25;;;10.30;99.90;;;;;;5053743;28;20190;-64
2022/06/14 03:17:29;;;;;;;7.78;3.97;;;10.30;99.90;;;;;;5054120;28;20201;-63
2022/06/14 03:20:05;;;;;;;5.28;3.58;;;10.40;99.90;;;;;;5053807;28;20701;-63
2022/06/14 03:22:44;;;;;;;5.65;2.67;;;10.50;99.90;;;;;;5053936;28;20190;-63
2022/06/14 03:25:20;;;;;;;6.70;4.30;;;10.50;99.90;;;;;;5054127;28;20235;-63
2022/06/14 03:27:54;;;;;;;6.70;4.38;;;10.60;99.90;;;;;;5053737;28;20263;-63
2022/06/14 03:30:27;;;;;;;6.45;3.20;;;10.60;99.90;;;;;;5054052;28;20898;-63
2022/06/14 03:33:02;;;;;;;8.77;3.70;;;10.70;99.90;;;;;;5053811;28;20669;-63
2022/06/14 03:35:35;;;;;;;7.00;3.43;;;10.80;99.90;;;;;;5053893;28;20490;-63
2022/06/14 03:38:08;;;;;;;6.50;4.18;;;10.90;99.90;;;;;;5053698;28;20472;-63
2022/06/14 03:40:35;;;;;;;6.87;3.23;;;11.00;99.90;;;;;;5053365;28;20253;-63
2022/06/14 03:43:04;;;;;;;4.50;3.10;;;11.10;99.90;;;;;;5053602;28;20503;-63
2022/06/14 03:45:39;;;;;;;5.30;3.30;;;11.20;99.90;;;;;;5053473;28;20500;-63
2022/06/14 03:48:08;;;;;;;6.23;3.50;;;11.30;99.90;;;;;;5053483;28;20435;-64
2022/06/14 03:50:43;;;;;;;9.10;4.10;;;11.40;99.90;;;;;;5053305;28;20542;-64
2022/06/14 03:53:29;;;;;;;4.97;3.03;;;11.50;99.90;;;;;;5053326;28;20467;-63
2022/06/14 03:56:14;;;;;;;4.77;4.00;;;11.70;99.90;;;;;;5053230;28;20533;-64
2022/06/14 03:59:01;;;;;;;4.20;3.10;;;11.80;99.90;;;;;;5052744;28;20458;-63
2022/06/14 04:01:31;;;;;;;6.90;3.23;;;11.90;99.90;;;;;;5054383;28;20535;-63
2022/06/14 04:04:19;;;;;;;6.30;3.33;;;12.10;99.90;;;;;;5053297;28;20452;-63
2022/06/14 04:09:58;;;;;;;4.00;3.60;;;12.40;99.90;;;;;;5112178;27;20972;-64
2022/06/14 04:12:35;;;;;;;5.30;3.30;;;12.50;99.90;;;;;;5111649;28;20839;-63
2022/06/14 04:15:14;;;;;;;5.20;3.43;;;12.60;99.90;;;;;;5112291;28;20423;-63
2022/06/14 04:17:49;;;;;;;4.80;3.50;;;12.70;99.90;;;;;;5114016;28;20458;-64
2022/06/14 04:20:22;;;;;;;3.23;2.77;;;12.70;99.90;;;;;;5116766;28;20468;-65
2022/06/14 04:22:59;;;;;;;5.33;2.80;;;12.70;99.90;;;;;;5114271;28;20459;-63
2022/06/14 04:25:36;;;;;;;6.30;3.27;;;12.60;99.90;;;;;;5113032;28;20427;-63
2022/06/14 04:28:12;;;;;;;8.70;3.47;;;12.70;99.90;;;;;;5111505;28;20467;-63
2022/06/14 04:30:46;;;;;;;7.63;3.03;;;12.70;99.90;;;;;;5112557;28;20470;-63
2022/06/14 04:33:18;;;;;;;6.07;3.60;;;12.70;99.90;;;;;;5111268;28;20425;-62
2022/06/14 04:35:51;;;;;;;6.57;3.90;;;12.80;99.90;;;;;;5111490;28;20502;-64
2022/06/14 04:38:24;;;;;;;7.90;2.90;;;12.80;99.90;;;;;;5111021;28;20465;-64
2022/06/14 04:40:58;;;;;;;6.17;2.47;;;12.80;99.90;;;;;;5112045;28;20463;-65
2022/06/14 04:43:30;;;;;;;7.30;2.80;;;12.80;99.90;;;;;;5110692;28;20435;-64
2022/06/14 04:46:04;;;;;;;8.03;2.97;;;12.80;99.90;;;;;;5110700;28;20466;-65
2022/06/14 04:48:37;;;;;;;5.03;2.60;;;12.80;99.50;;;;;;5110202;28;20463;-63
2022/06/14 04:51:09;;;;;;;3.80;2.63;;;12.80;99.10;;;;;;5104812;28;20557;-64
2022/06/14 04:53:42;;;;;;;6.13;3.20;;;12.70;98.70;;;;;;5104304;28;20533;-63
2022/06/14 04:56:18;;;;;;;6.33;2.87;;;12.80;98.60;;;;;;5102102;28;20882;-64
2022/06/14 04:58:49;;;;;;;7.57;2.97;;;12.80;98.50;;;;;;5110346;28;20431;-64
2022/06/14 05:01:19;;;;;;;5.40;3.10;;;12.80;98.30;;;;;;5110506;28;20436;-64
2022/06/14 05:03:50;;;;;;;7.03;3.47;;;12.90;98.10;;;;;;5098604;28;20458;-63
2022/06/14 05:06:25;;;;;;;4.93;3.50;;;12.90;97.80;;;;;;5099711;28;20457;-62
2022/06/14 05:08:57;;;;;;;5.73;2.90;;;13.10;97.60;;;;;;5094465;28;20492;-62
2022/06/14 05:11:35;;;;;;;6.63;2.43;;;13.20;97.40;;;;;;5104134;28;20456;-62
2022/06/14 05:14:08;;;;;;;4.83;2.90;;;13.40;97.10;;;;;;5126947;28;20429;-64
2022/06/14 05:16:39;;;;;;;6.90;2.57;;;13.50;96.30;;;;;;5107754;28;20422;-64
2022/06/14 05:19:11;;;;;;;3.20;2.57;;;13.70;95.80;;;;;;5109049;28;20461;-63
2022/06/14 05:21:48;;;;;;;6.67;2.80;;;13.80;95.20;;;;;;5096047;28;20427;-63
2022/06/14 05:24:16;;;;;;;7.67;3.10;;;13.90;94.80;;;;;;5097024;28;20449;-64
2022/06/14 05:27:09;;;;;;;4.10;2.10;;;14.00;94.40;;;;;;5100280;28;20496;-64
2022/06/14 05:29:45;;;;;;;5.90;2.90;;;14.20;93.80;;;;;;5109249;28;20520;-62
2022/06/14 05:32:23;;;;;;;8.20;2.97;;;14.50;92.80;;;;;;5112844;28;20426;-64
2022/06/14 05:35:06;;;;;;;5.63;2.30;;;14.50;91.80;;;;;;5108975;28;20454;-63
2022/06/14 05:37:43;;;;;;;4.43;2.50;;;14.50;91.30;;;;;;5094159;28;20434;-65
2022/06/14 05:40:14;;;;;;;6.27;2.57;;;14.60;91.00;;;;;;5082883;28;20455;-62
2022/06/14 05:42:46;;;;;;;7.53;2.60;;;14.60;90.60;;;;;;5077137;28;20432;-62
2022/06/14 05:45:18;;;;;;;4.80;2.17;;;14.60;90.20;;;;;;5076657;28;20439;-63
2022/06/14 05:47:49;;;;;;;5.30;2.30;;;14.70;89.90;;;;;;5077309;28;20459;-63
2022/06/14 05:50:22;;;;;;;5.37;2.23;;;14.70;89.20;;;;;;5076716;28;20487;-63
2022/06/14 05:52:53;;;;;;;5.00;2.20;;;14.80;88.30;;;;;;5089273;28;20426;-63
2022/06/14 05:55:25;;;;;;;4.17;2.27;;;14.90;87.00;;;;;;5105666;28;20425;-62
2022/06/14 05:57:58;;;;;;;4.13;2.00;;;14.90;86.20;;;;;;5092551;28;20530;-62
2022/06/14 06:00:32;;;;;;;6.40;2.40;;;14.80;85.70;;;;;;5083845;28;20890;-63
2022/06/14 06:03:07;;;;;;;7.73;3.37;;;14.90;86.10;;;;;;5084904;28;20435;-65
2022/06/14 06:05:40;;;;;;;5.90;2.73;;;15.00;85.30;;;;;;5090445;28;20452;-69
2022/06/14 06:08:13;;;;;;;5.90;2.80;;;15.10;85.30;;;;;;5095461;28;20466;-61
2022/06/14 06:10:44;;;;;;;4.87;2.30;;;15.30;84.20;;;;;;5095891;28;20475;-63
2022/06/14 06:13:20;;;;;;;6.63;2.20;;;15.40;83.00;;;;;;5096075;28;20430;-63
2022/06/14 06:15:51;;;;;;;5.10;2.30;;;15.60;81.70;;;;;;5095741;28;20536;-63
2022/06/14 06:18:24;;;;;;;3.50;1.90;;;15.60;80.80;;;;;;5096265;28;20617;-62
2022/06/14 06:20:58;;;;;;;10.47;2.27;;;15.80;80.60;;;;;;5094111;28;21026;-63
2022/06/14 06:23:30;;;;;;;5.40;1.97;;;16.20;78.80;;;;;;5095170;28;20434;-63
2022/06/14 06:25:58;;;;;;;7.77;3.07;;;16.40;76.50;;;;;;5094489;28;20449;-64
2022/06/14 06:28:30;;;;;;;4.90;2.03;;;16.50;74.40;;;;;;5087400;28;20517;-63
2022/06/14 06:31:03;;;;;;;8.37;3.00;;;16.50;73.20;;;;;;5094038;28;20484;-63
2022/06/14 06:33:33;;;;;;;4.77;1.40;;;16.40;72.20;;;;;;5094138;28;20430;-63
2022/06/14 06:36:12;;;;;;;6.37;2.60;;;16.30;72.00;;;;;;5093769;28;20540;-64
2022/06/14 06:38:50;;;;;;;5.23;2.20;;;16.20;71.60;;;;;;5094601;28;20461;-62
2022/06/14 06:44:21;;;;;;;6.50;1.80;;;16.20;70.20;;;;;;5038949;28;20941;-63
2022/06/14 06:46:59;;;;;;;7.87;2.03;;;16.20;70.00;;;;;;5086071;28;20484;-64
2022/06/14 06:49:40;;;;;;;2.80;1.40;;;16.30;69.70;;;;;;5076091;28;20920;-62
2022/06/14 06:52:12;;;;;;;2.43;1.37;;;16.30;68.90;;;;;;5075138;28;20973;-63
2022/06/14 06:54:48;;;;;;;3.85;1.60;;;16.40;68.00;;;;;;5090468;28;20448;-62
2022/06/14 06:57:19;;;;;;;5.23;1.77;;;16.40;67.30;;;;;;5081128;28;20493;-62
2022/06/14 06:59:51;;;;;;;7.20;2.03;;;16.50;66.80;;;;;;5094014;28;20515;-62
2022/06/14 07:02:25;;;;;;;8.20;2.47;;;16.50;66.60;;;;;;5094181;28;20429;-62
2022/06/14 07:05:05;;;;;;;4.73;1.77;;;16.50;66.10;;;;;;5094985;28;20434;-62
2022/06/14 07:07:44;;;;;;;7.20;1.70;;;16.50;65.60;;;;;;5094924;28;20440;-61
2022/06/14 07:10:20;;;;;;;4.67;1.40;;;16.60;65.60;;;;;;5094959;28;20542;-62
2022/06/14 07:12:52;;;;;;;5.97;1.90;;;16.90;65.90;;;;;;5092942;28;20461;-64
2022/06/14 07:15:27;;;;;;;3.57;1.70;;;17.10;64.80;;;;;;5082899;28;20458;-61
2022/06/14 07:18:02;;;;;;;3.80;1.70;;;17.20;64.10;;;;;;5094393;28;20842;-62
2022/06/14 07:20:38;;;;;;;5.60;1.83;;;17.30;63.80;;;;;;5076266;28;20474;-62
2022/06/14 07:23:16;;;;;;;3.50;1.40;;;17.30;63.20;;;;;;5080179;28;20442;-62
2022/06/14 07:25:54;;;;;;;7.70;1.80;;;17.10;62.50;;;;;;5095477;28;20434;-61
2022/06/14 07:28:28;;;;;;;2.50;1.47;;;17.00;62.90;;;;;;5093958;28;20457;-61
2022/06/14 07:31:03;;;;;;;3.67;1.80;;;17.00;63.10;;;;;;5093675;28;20533;-62
2022/06/14 07:33:31;;;;;;;7.03;2.47;;;16.90;63.10;;;;;;5093314;28;20472;-62
2022/06/14 07:36:02;;;;;;;6.53;1.87;;;16.80;63.40;;;;;;5093978;28;20445;-63
2022/06/14 07:38:36;;;;;;;3.60;1.87;;;17.00;63.70;;;;;;5094096;28;20534;-63
2022/06/14 07:41:14;;;;;;;5.07;1.90;;;17.10;63.50;;;;;;5093703;28;20534;-63
2022/06/14 07:43:47;;;;;;;4.50;2.17;;;17.30;62.90;;;;;;5093725;28;20453;-61
2022/06/14 07:46:23;;;;;;;4.57;1.73;;;17.50;62.20;;;;;;5094006;28;20528;-63
2022/06/14 07:48:58;;;;;;;4.20;1.80;;;17.60;62.00;;;;;;5094283;28;20235;-63
2022/06/14 07:51:31;;;;;;;7.97;2.20;;;17.60;62.00;;;;;;5093293;28;20975;-64
2022/06/14 07:54:04;;;;;;;2.83;1.80;;;17.70;61.70;;;;;;5094143;28;20445;-63
2022/06/14 07:56:35;;;;;;;6.75;2.20;;;17.80;60.80;;;;;;5093364;28;20958;-64
2022/06/14 07:59:08;;;;;;;12.50;3.23;;;17.90;60.10;;;;;;5093849;28;20238;-63
2022/06/14 08:01:40;;;;;;;4.90;2.10;;;17.90;59.70;;;;;;5093193;28;20520;-62
2022/06/14 08:04:18;;;;;;;3.97;1.70;;;18.00;59.60;;;;;;5093102;28;20838;-62
2022/06/14 08:06:48;;;;;;;8.10;2.53;;;17.90;59.40;;;;;;5093638;28;20430;-63
2022/06/14 08:09:22;;;;;;;8.80;2.47;;;17.80;60.00;;;;;;5092374;28;20478;-62
2022/06/14 08:11:53;;;;;;;4.13;2.20;;;17.80;59.60;;;;;;5093610;28;20541;-63
2022/06/14 08:14:26;;;;;;;4.10;2.10;;;17.90;59.60;;;;;;5092663;28;20965;-63
2022/06/14 08:16:57;;;;;;;4.67;1.77;;;18.20;59.40;;;;;;5094187;28;20870;-64
2022/06/14 08:19:28;;;;;;;7.37;1.87;;;18.40;58.70;;;;;;5094137;28;20503;-63
2022/06/14 08:22:02;;;;;;;3.00;1.83;;;18.80;57.70;;;;;;5093258;28;20912;-62
2022/06/14 08:24:32;;;;;;;3.07;1.50;;;18.90;56.20;;;;;;5093693;28;20423;-64
2022/06/14 08:27:05;;;;;;;7.87;1.47;;;18.80;55.70;;;;;;5094114;28;20500;-64
2022/06/14 08:29:37;;;;;;;4.43;1.77;;;18.70;55.60;;;;;;5092410;28;20482;-64
2022/06/14 08:32:11;;;;;;;3.27;1.97;;;18.60;55.60;;;;;;5093203;28;20486;-64
2022/06/14 08:34:44;;;;;;;4.07;1.77;;;18.50;56.00;;;;;;5093784;28;20432;-64
2022/06/14 08:37:18;;;;;;;5.17;1.80;;;18.50;56.10;;;;;;5094397;28;20427;-62
2022/06/14 08:39:50;;;;;;;10.33;1.93;;;18.50;56.20;;;;;;5092417;28;20872;-62
2022/06/14 08:42:27;;;;;;;8.63;2.30;;;18.70;56.00;;;;;;5092942;28;20481;-60
2022/06/14 08:44:59;;;;;;;11.80;1.80;;;18.90;55.20;;;;;;5093026;28;20435;-63
2022/06/14 08:47:59;;;;;;;3.60;1.63;;;18.90;53.70;;;;;;5092329;28;20440;-61
2022/06/14 08:50:46;;;;;;;5.83;2.17;;;18.70;53.70;;;;;;5093455;28;20518;-62
2022/06/14 08:53:54;;;;;;;2.57;1.73;;;18.40;53.90;;;;;;5093606;28;20463;-61
2022/06/14 08:56:38;;;;;;;7.53;2.37;;;18.40;54.50;;;;;;5095133;28;20532;-62
2022/06/14 08:59:48;;;;;;;4.90;2.30;;;18.40;54.30;;;;;;5093711;28;20482;-63
2022/06/14 09:02:57;;;;;;;4.33;2.70;;;18.60;54.40;;;;;;5098445;28;20539;-63
2022/06/14 09:06:01;;;;;;;6.27;2.30;;;18.60;53.90;;;;;;5072300;28;20531;-62
2022/06/14 09:08:48;;;;;;;5.57;2.87;;;18.50;53.50;;;;;;5075638;28;20463;-64
2022/06/14 09:11:44;;;;;;;6.13;2.17;;;18.40;53.20;;;;;;5078897;28;20505;-63
2022/06/14 09:14:39;;;;;;;5.97;2.30;;;18.50;53.10;;;;;;5093196;28;20447;-62
2022/06/14 09:17:35;;;;;;;3.23;2.03;;;18.80;53.00;;;;;;5098671;28;20461;-63
2022/06/14 09:20:06;;;;;;;3.23;2.20;;;19.00;52.80;;;;;;5083320;28;20470;-63
2022/06/14 09:22:39;;;;;;;7.70;2.40;;;19.20;52.10;;;;;;5095674;28;20513;-64
2022/06/14 09:25:21;;;;;;;5.33;2.50;;;19.30;51.60;;;;;;5081416;28;20485;-62
2022/06/14 09:28:10;;;;;;;3.30;2.33;;;19.10;51.20;;;;;;5096761;28;20443;-63
2022/06/14 09:31:06;;;;;;;4.77;1.90;;;18.90;51.60;;;;;;5096805;28;20532;-63
2022/06/14 09:34:14;;;;;;;4.53;2.40;;;18.70;51.70;;;;;;5096489;28;20490;-63
2022/06/14 09:37:23;;;;;;;4.80;2.67;;;18.70;51.90;;;;;;5095474;28;20446;-62
2022/06/14 09:40:10;;;;;;;5.23;2.10;;;18.60;51.80;;;;;;5092207;28;20487;-62
2022/06/14 09:43:21;;;;;;;4.07;2.33;;;18.40;51.80;;;;;;5096094;28;20434;-61
2022/06/14 09:46:18;;;;;;;8.40;2.97;;;18.30;51.80;;;;;;5096285;28;20503;-64
2022/06/14 09:49:15;;;;;;;3.10;2.23;;;18.40;52.10;;;;;;5070609;28;20860;-61
2022/06/14 09:52:23;;;;;;;4.43;2.97;;;18.40;52.10;;;;;;5086370;28;20477;-63
2022/06/14 09:55:22;;;;;;;3.43;2.50;;;18.50;52.50;;;;;;5064278;28;20977;-62
2022/06/14 09:58:34;;;;;;;3.83;2.70;;;18.50;52.40;;;;;;5087190;28;20555;-64
2022/06/14 10:01:16;;;;;;;4.63;2.73;;;18.40;52.30;;;;;;5015983;28;20458;-64
2022/06/14 10:04:19;;;;;;;3.60;2.67;;;18.40;52.10;;;;;;5095148;28;20503;-63
2022/06/14 10:07:05;;;;;;;3.50;2.70;;;18.50;51.60;;;;;;5075309;22;20556;-60
2022/06/14 10:09:47;;;;;;;3.10;2.80;;;18.70;50.80;;;;;;5031878;28;20558;-60
2022/06/14 10:12:45;;;;;;;6.10;2.40;;;18.80;50.30;;;;;;5033250;28;20545;-61
2022/06/14 10:15:20;;;;;;;5.37;2.60;;;18.90;50.00;;;;;;5035630;28;20426;-61
2022/06/14 10:18:13;;;;;;;6.07;2.47;;;18.90;49.90;;;;;;5021231;28;20989;-59
2022/06/14 10:20:49;;;;;;;5.97;2.60;;;18.90;49.90;;;;;;5034288;28;20430;-59
2022/06/14 10:23:36;;;;;;;5.60;3.17;;;19.20;49.60;;;;;;5034096;28;20443;-60
2022/06/14 10:29:19;;;;;;;7.60;2.57;;;19.60;48.60;;;;;;5034025;28;20432;-60
2022/06/14 10:32:07;;;;;;;5.90;2.40;;;20.00;47.60;;;;;;5037467;28;20449;-60
2022/06/14 10:34:40;;;;;;;3.47;2.17;;;20.20;47.00;;;;;;5033078;28;20465;-60
2022/06/14 10:37:27;;;;;;;6.13;2.30;;;20.30;46.50;;;;;;5052966;28;20474;-59
2022/06/14 10:40:30;;;;;;;4.30;2.15;;;20.20;46.60;;;;;;5052872;28;20435;-59
2022/06/14 10:43:04;;;;;;;3.40;2.77;;;20.10;47.50;;;;;;5005577;28;20238;-57
2022/06/14 10:45:37;;;;;;;7.38;2.40;;;19.90;48.20;;;;;;5033075;28;20473;-56
2022/06/14 10:48:30;;;;;;;5.03;2.38;;;19.50;49.00;;;;;;5032665;28;20461;-56
2022/06/14 10:51:08;;;;;;;4.90;2.90;;;19.30;49.80;;;;;;5029041;28;20231;-57
2022/06/14 10:53:45;;;;;;;3.53;2.60;;;19.20;49.90;;;;;;5032467;28;20460;-56
2022/06/14 10:56:49;;;;;;;5.13;2.20;;;19.30;50.10;;;;;;5033258;28;20486;-56
2022/06/14 10:59:47;;;;;;;4.77;2.67;;;19.40;49.60;;;;;;5031844;28;20495;-56
2022/06/14 11:02:28;;;;;;;5.40;2.40;;;19.60;49.00;;;;;;5030437;28;20467;-57
2022/06/14 11:05:01;;;;;;;4.90;2.20;;;19.80;48.40;;;;;;5033124;28;20919;-56
2022/06/14 11:07:49;;;;;;;7.73;2.70;;;20.10;47.50;;;;;;5032301;28;20508;-58
2022/06/14 11:10:45;;;;;;;3.57;2.00;;;20.30;47.20;;;;;;5032429;28;20480;-58
2022/06/14 11:13:24;;;;;;;5.63;2.70;;;20.40;47.20;;;;;;5033586;28;20433;-58
2022/06/14 11:15:56;;;;;;;3.00;2.40;;;20.60;47.20;;;;;;5032042;28;20481;-59
2022/06/14 11:19:01;;;;;;;4.97;2.70;;;20.90;46.80;;;;;;5031513;28;20446;-59
2022/06/14 11:21:40;;;;;;;3.07;2.27;;;21.10;46.20;;;;;;5032461;28;20550;-58
2022/06/14 11:24:15;;;;;;;3.47;2.70;;;21.50;45.80;;;;;;5032958;28;20530;-58
2022/06/14 11:26:51;;;;;;;2.30;2.10;;;21.60;44.60;;;;;;5032381;28;20469;-58
2022/06/14 11:29:26;;;;;;;4.18;2.10;;;21.50;44.00;;;;;;5030203;28;20547;-59
2022/06/14 11:32:02;;;;;;;5.97;2.63;;;21.70;43.10;;;;;;5031840;28;20307;-59
2022/06/14 11:34:44;;;;;;;3.23;2.20;;;21.70;42.30;;;;;;5032613;28;20439;-58
2022/06/14 11:37:46;;;;;;;3.33;2.03;;;21.80;41.80;;;;;;5033038;28;20807;-58
2022/06/14 11:40:18;;;;;;;3.63;1.93;;;21.90;41.80;;;;;;5032180;28;20488;-57
2022/06/14 11:42:55;;;;;;;5.07;2.70;;;22.00;41.80;;;;;;5032489;28;20522;-58
2022/06/14 11:45:34;;;;;;;3.67;2.20;;;22.20;42.20;;;;;;5032597;28;20459;-59
2022/06/14 11:48:10;;;;;;;6.57;2.90;;;22.20;42.70;;;;;;5031192;28;20908;-59
2022/06/14 11:50:47;;;;;;;5.60;2.90;;;22.30;43.00;;;;;;5032126;28;20467;-59
2022/06/14 11:53:55;;;;;;;4.60;2.67;;;22.40;42.70;;;;;;5032814;28;20490;-58
2022/06/14 11:56:29;;;;;;;2.00;1.80;;;22.50;42.50;;;;;;4950809;29;20658;-60
2022/06/14 11:59:30;;;;;;;4.10;2.20;;;22.40;42.00;;;;;;4952040;29;20571;-60
2022/06/14 12:02:15;;;;;;;3.73;1.97;;;21.90;42.00;;;;;;5014279;28;20486;-59
2022/06/14 12:04:53;;;;;;;4.03;2.50;;;22.20;42.10;;;;;;5031038;28;20480;-60
2022/06/14 12:07:28;;;;;;;4.13;2.00;;;22.60;41.20;;;;;;5031028;28;20511;-61
2022/06/14 12:10:31;;;;;;;5.40;2.50;;;22.70;41.20;;;;;;5031963;28;20456;-58
2022/06/14 12:13:14;;;;;;;4.07;2.87;;;22.50;41.20;;;;;;5032448;28;20445;-59
2022/06/14 12:15:50;;;;;;;6.40;2.27;;;22.50;41.00;;;;;;5030910;28;20471;-60
2022/06/14 12:18:22;;;;;;;3.47;2.10;;;22.60;39.90;;;;;;5028544;28;20526;-59
2022/06/14 12:20:59;;;;;;;4.33;2.10;;;22.40;39.90;;;;;;5032402;28;20426;-57
2022/06/14 12:23:32;;;;;;;3.83;1.70;;;22.10;40.40;;;;;;5031879;28;20533;-55
2022/06/14 12:29:16;;;;;;;6.00;2.50;;;23.00;39.60;;;;;;4990465;28;20462;-56
2022/06/14 12:31:55;;;;;;;5.33;2.40;;;23.90;38.40;;;;;;4993487;28;20473;-56
2022/06/14 12:34:27;;;;;;;4.30;2.33;;;24.50;37.40;;;;;;5017806;28;20499;-55
2022/06/14 12:37:07;;;;;;;5.80;2.77;;;25.10;36.60;;;;;;5036128;28;20511;-57
2022/06/14 12:39:41;;;;;;;5.50;1.93;;;25.40;36.20;;;;;;5034939;28;20444;-56
2022/06/14 12:42:12;;;;;;;3.30;1.93;;;25.40;35.60;;;;;;5035790;28;20477;-56
2022/06/14 12:44:50;;;;;;;3.00;2.30;;;24.80;36.30;;;;;;5035708;28;20429;-60
2022/06/14 12:47:23;;;;;;;3.30;2.00;;;24.20;37.30;;;;;;5034982;28;20492;-62
2022/06/14 12:49:54;;;;;;;7.28;2.80;;;23.70;38.30;;;;;;5034715;28;20516;-62
2022/06/14 12:52:26;;;;;;;8.80;3.20;;;23.10;39.20;;;;;;5035827;28;20233;-61
2022/06/14 12:55:00;;;;;;;6.47;2.63;;;22.30;40.70;;;;;;5035708;28;20433;-62
2022/06/14 12:57:42;;;;;;;6.43;2.72;;;21.70;41.80;;;;;;5034210;28;20863;-66
2022/06/14 13:00:19;;;;;;;4.53;2.50;;;21.50;42.60;;;;;;5035802;28;20196;-65
2022/06/14 13:02:55;;;;;;;5.20;2.97;;;21.20;42.90;;;;;;5034674;28;20487;-65
2022/06/14 13:05:27;;;;;;;4.63;2.63;;;21.10;43.30;;;;;;5035747;28;20548;-64
2022/06/14 13:08:06;;;;;;;3.93;2.23;;;21.00;43.70;;;;;;5035575;28;20473;-66
2022/06/14 13:10:51;;;;;;;5.50;2.50;;;20.90;43.90;;;;;;5035742;28;20524;-65
2022/06/14 13:13:41;;;;;;;6.83;2.90;;;20.80;43.90;;;;;;5035593;28;20462;-64
2022/06/14 13:16:23;;;;;;;4.97;2.50;;;20.90;43.70;;;;;;5035257;28;20472;-66
2022/06/14 13:19:00;;;;;;;4.13;2.43;;;21.10;43.60;;;;;;5034816;28;20426;-64
2022/06/14 13:21:41;;;;;;;4.60;2.90;;;21.30;43.50;;;;;;5036096;28;20458;-67
2022/06/14 13:24:21;;;;;;;6.00;2.70;;;21.50;43.20;;;;;;5035584;28;20429;-64
2022/06/14 13:27:02;;;;;;;5.00;2.70;;;21.60;42.70;;;;;;5035081;28;20466;-68
2022/06/14 13:29:55;;;;;;;4.40;3.60;;;21.40;42.60;;;;;;5034682;28;20427;-64
2022/06/14 13:32:51;;;;;;;2.60;2.03;;;21.50;42.70;;;;;;5030892;28;20536;-63
2022/06/14 13:35:35;;;;;;;4.07;2.00;;;21.50;42.40;;;;;;5010182;28;20511;-65
2022/06/14 13:38:07;;;;;;;7.13;2.00;;;21.50;42.60;;;;;;5035194;28;20429;-63
2022/06/14 13:40:41;;;;;;;3.23;2.07;;;21.60;42.70;;;;;;5034038;28;20872;-65
2022/06/14 13:43:24;;;;;;;3.10;2.00;;;21.60;42.60;;;;;;5035384;28;20493;-64
2022/06/14 13:46:00;;;;;;;4.10;2.10;;;21.70;42.70;;;;;;5034764;28;20896;-64
2022/06/14 13:48:34;;;;;;;5.90;2.37;;;22.00;42.60;;;;;;5034136;28;20471;-65
2022/06/14 13:51:15;;;;;;;2.20;1.80;;;22.00;42.10;;;;;;5034739;28;20464;-63
2022/06/14 13:53:49;;;;;;;5.73;3.10;;;21.90;41.70;;;;;;5034028;28;20533;-63
2022/06/14 13:56:22;;;;;;;5.93;2.40;;;21.80;42.20;;;;;;5034623;28;20515;-64
2022/06/14 13:58:59;;;;;;;3.20;2.43;;;21.70;41.70;;;;;;5034661;28;20448;-67